sensor_id;sensor_type;location;lat;lon;timestamp;P1;durP1;ratioP1;P2;durP2;ratioP2
4244;SDS011;2136;48.502;9.194;2023-05-07T00:00:39;5.37;;;4.23;;
4244;SDS011;2136;48.502;9.194;2023-05-07T00:03:08;4.87;;;4.40;;
4244;SDS011;2136;48.502;9.194;2023-05-07T00:05:36;6.90;;;4.80;;
4244;SDS011;2136;48.502;9.194;2023-05-07T00:08:04;7.53;;;4.53;;
4244;SDS011;2136;48.502;9.194;2023-05-07T00:10:31;6.00;;;4.47;;
4244;SDS011;2136;48.502;9.194;2023-05-07T00:12:58;7.03;;;4.93;;
4244;SDS011;2136;48.502;9.194;2023-05-07T00:15:25;8.43;;;4.60;;
4244;SDS011;2136;48.502;9.194;2023-05-07T00:17:52;5.33;;;4.83;;
4244;SDS011;2136;48.502;9.194;2023-05-07T00:20:21;5.60;;;4.70;;
4244;SDS011;2136;48.502;9.194;2023-05-07T00:22:48;6.87;;;4.40;;
4244;SDS011;2136;48.502;9.194;2023-05-07T00:25:15;7.13;;;4.50;;
4244;SDS011;2136;48.502;9.194;2023-05-07T00:27:41;4.90;;;4.50;;
4244;SDS011;2136;48.502;9.194;2023-05-07T00:30:09;16.43;;;4.60;;
4244;SDS011;2136;48.502;9.194;2023-05-07T00:32:37;5.97;;;4.30;;
4244;SDS011;2136;48.502;9.194;2023-05-07T00:35:04;7.10;;;4.50;;
4244;SDS011;2136;48.502;9.194;2023-05-07T00:37:33;5.40;;;4.90;;
4244;SDS011;2136;48.502;9.194;2023-05-07T00:40:00;4.97;;;4.50;;
4244;SDS011;2136;48.502;9.194;2023-05-07T00:42:29;10.53;;;5.40;;
4244;SDS011;2136;48.502;9.194;2023-05-07T00:44:57;10.23;;;4.87;;
4244;SDS011;2136;48.502;9.194;2023-05-07T00:47:24;7.33;;;4.70;;
4244;SDS011;2136;48.502;9.194;2023-05-07T00:49:51;4.40;;;4.00;;
4244;SDS011;2136;48.502;9.194;2023-05-07T00:52:19;6.93;;;4.30;;
4244;SDS011;2136;48.502;9.194;2023-05-07T00:54:48;4.47;;;4.07;;
4244;SDS011;2136;48.502;9.194;2023-05-07T00:57:15;5.03;;;4.63;;
4244;SDS011;2136;48.502;9.194;2023-05-07T00:59:42;4.30;;;3.53;;
4244;SDS011;2136;48.502;9.194;2023-05-07T01:02:09;4.97;;;4.23;;
4244;SDS011;2136;48.502;9.194;2023-05-07T01:04:36;12.53;;;4.63;;
4244;SDS011;2136;48.502;9.194;2023-05-07T01:07:03;5.53;;;4.43;;
4244;SDS011;2136;48.502;9.194;2023-05-07T01:09:31;5.70;;;5.07;;
4244;SDS011;2136;48.502;9.194;2023-05-07T01:12:01;7.20;;;4.50;;
4244;SDS011;2136;48.502;9.194;2023-05-07T01:14:30;10.70;;;5.20;;
4244;SDS011;2136;48.502;9.194;2023-05-07T01:16:58;6.73;;;4.60;;
4244;SDS011;2136;48.502;9.194;2023-05-07T01:19:25;6.10;;;4.93;;
4244;SDS011;2136;48.502;9.194;2023-05-07T01:21:52;5.40;;;4.20;;
4244;SDS011;2136;48.502;9.194;2023-05-07T01:24:29;4.87;;;4.37;;
4244;SDS011;2136;48.502;9.194;2023-05-07T01:26:57;4.13;;;3.77;;
4244;SDS011;2136;48.502;9.194;2023-05-07T01:29:24;5.10;;;4.17;;
4244;SDS011;2136;48.502;9.194;2023-05-07T01:31:51;6.73;;;3.80;;
4244;SDS011;2136;48.502;9.194;2023-05-07T01:34:18;6.30;;;3.97;;
4244;SDS011;2136;48.502;9.194;2023-05-07T01:36:47;7.70;;;4.33;;
4244;SDS011;2136;48.502;9.194;2023-05-07T01:39:14;4.30;;;3.90;;
4244;SDS011;2136;48.502;9.194;2023-05-07T01:41:43;4.60;;;4.20;;
4244;SDS011;2136;48.502;9.194;2023-05-07T01:46:38;5.37;;;4.40;;
4244;SDS011;2136;48.502;9.194;2023-05-07T01:49:05;6.37;;;3.70;;
4244;SDS011;2136;48.502;9.194;2023-05-07T01:51:32;15.60;;;3.63;;
4244;SDS011;2136;48.502;9.194;2023-05-07T01:54:00;3.33;;;3.03;;
4244;SDS011;2136;48.502;9.194;2023-05-07T01:56:27;10.40;;;4.73;;
4244;SDS011;2136;48.502;9.194;2023-05-07T01:58:55;3.97;;;3.57;;
4244;SDS011;2136;48.502;9.194;2023-05-07T02:01:22;5.50;;;3.30;;
4244;SDS011;2136;48.502;9.194;2023-05-07T02:03:48;6.30;;;3.60;;
4244;SDS011;2136;48.502;9.194;2023-05-07T02:06:15;7.20;;;3.87;;
4244;SDS011;2136;48.502;9.194;2023-05-07T02:08:42;4.03;;;3.63;;
4244;SDS011;2136;48.502;9.194;2023-05-07T02:11:09;7.63;;;3.50;;
4244;SDS011;2136;48.502;9.194;2023-05-07T02:13:36;7.63;;;3.97;;
4244;SDS011;2136;48.502;9.194;2023-05-07T02:16:04;3.30;;;3.00;;
4244;SDS011;2136;48.502;9.194;2023-05-07T02:18:31;3.90;;;3.40;;
4244;SDS011;2136;48.502;9.194;2023-05-07T02:20:58;4.10;;;3.50;;
4244;SDS011;2136;48.502;9.194;2023-05-07T02:23:25;3.83;;;3.53;;
4244;SDS011;2136;48.502;9.194;2023-05-07T02:25:52;6.13;;;3.10;;
4244;SDS011;2136;48.502;9.194;2023-05-07T02:28:19;4.83;;;3.87;;
4244;SDS011;2136;48.502;9.194;2023-05-07T02:30:45;5.10;;;3.40;;
4244;SDS011;2136;48.502;9.194;2023-05-07T02:33:14;5.97;;;4.17;;
4244;SDS011;2136;48.502;9.194;2023-05-07T02:35:40;5.40;;;3.33;;
4244;SDS011;2136;48.502;9.194;2023-05-07T02:38:07;4.23;;;3.50;;
4244;SDS011;2136;48.502;9.194;2023-05-07T02:40:35;7.27;;;3.03;;
4244;SDS011;2136;48.502;9.194;2023-05-07T02:43:03;3.53;;;3.00;;
4244;SDS011;2136;48.502;9.194;2023-05-07T02:45:31;5.00;;;3.20;;
4244;SDS011;2136;48.502;9.194;2023-05-07T02:47:58;5.83;;;3.67;;
4244;SDS011;2136;48.502;9.194;2023-05-07T02:50:26;4.27;;;3.70;;
4244;SDS011;2136;48.502;9.194;2023-05-07T02:52:53;4.67;;;4.17;;
4244;SDS011;2136;48.502;9.194;2023-05-07T02:55:20;4.40;;;3.57;;
4244;SDS011;2136;48.502;9.194;2023-05-07T02:57:47;6.47;;;4.10;;
4244;SDS011;2136;48.502;9.194;2023-05-07T03:00:14;4.73;;;4.27;;
4244;SDS011;2136;48.502;9.194;2023-05-07T03:02:43;8.43;;;4.13;;
4244;SDS011;2136;48.502;9.194;2023-05-07T03:05:09;3.63;;;3.33;;
4244;SDS011;2136;48.502;9.194;2023-05-07T03:07:39;9.00;;;4.10;;
4244;SDS011;2136;48.502;9.194;2023-05-07T03:10:06;7.70;;;3.60;;
4244;SDS011;2136;48.502;9.194;2023-05-07T03:12:33;8.17;;;4.03;;
4244;SDS011;2136;48.502;9.194;2023-05-07T03:15:00;3.33;;;3.03;;
4244;SDS011;2136;48.502;9.194;2023-05-07T03:17:27;5.83;;;3.80;;
4244;SDS011;2136;48.502;9.194;2023-05-07T03:19:54;4.63;;;3.23;;
4244;SDS011;2136;48.502;9.194;2023-05-07T03:22:21;3.20;;;3.00;;
4244;SDS011;2136;48.502;9.194;2023-05-07T03:24:49;4.30;;;3.90;;
4244;SDS011;2136;48.502;9.194;2023-05-07T03:27:16;6.50;;;3.83;;
4244;SDS011;2136;48.502;9.194;2023-05-07T03:29:43;6.53;;;4.37;;
4244;SDS011;2136;48.502;9.194;2023-05-07T03:32:09;7.70;;;3.87;;
4244;SDS011;2136;48.502;9.194;2023-05-07T03:34:36;4.83;;;3.83;;
4244;SDS011;2136;48.502;9.194;2023-05-07T03:37:03;4.23;;;3.83;;
4244;SDS011;2136;48.502;9.194;2023-05-07T03:39:30;6.60;;;3.90;;
4244;SDS011;2136;48.502;9.194;2023-05-07T03:41:59;7.33;;;4.70;;
4244;SDS011;2136;48.502;9.194;2023-05-07T03:44:26;5.13;;;4.07;;
4244;SDS011;2136;48.502;9.194;2023-05-07T03:46:53;7.83;;;4.40;;
4244;SDS011;2136;48.502;9.194;2023-05-07T03:49:20;5.33;;;4.00;;
4244;SDS011;2136;48.502;9.194;2023-05-07T03:51:47;4.47;;;4.07;;
4244;SDS011;2136;48.502;9.194;2023-05-07T03:54:14;5.93;;;4.47;;
4244;SDS011;2136;48.502;9.194;2023-05-07T03:56:40;7.43;;;4.30;;
4244;SDS011;2136;48.502;9.194;2023-05-07T03:59:09;4.07;;;3.63;;
4244;SDS011;2136;48.502;9.194;2023-05-07T04:01:35;10.67;;;4.67;;
4244;SDS011;2136;48.502;9.194;2023-05-07T04:04:02;6.37;;;4.20;;
4244;SDS011;2136;48.502;9.194;2023-05-07T04:06:29;11.67;;;4.20;;
4244;SDS011;2136;48.502;9.194;2023-05-07T04:08:56;5.30;;;3.70;;
4244;SDS011;2136;48.502;9.194;2023-05-07T04:11:23;5.00;;;3.70;;
4244;SDS011;2136;48.502;9.194;2023-05-07T04:13:50;6.30;;;3.93;;
4244;SDS011;2136;48.502;9.194;2023-05-07T04:16:18;5.10;;;4.70;;
4244;SDS011;2136;48.502;9.194;2023-05-07T04:18:45;5.43;;;3.80;;
4244;SDS011;2136;48.502;9.194;2023-05-07T04:21:15;3.93;;;3.60;;
4244;SDS011;2136;48.502;9.194;2023-05-07T04:23:42;6.80;;;4.53;;
4244;SDS011;2136;48.502;9.194;2023-05-07T04:26:09;4.43;;;4.03;;
4244;SDS011;2136;48.502;9.194;2023-05-07T04:28:36;4.20;;;3.83;;
4244;SDS011;2136;48.502;9.194;2023-05-07T04:31:04;6.23;;;3.93;;
4244;SDS011;2136;48.502;9.194;2023-05-07T04:33:32;4.80;;;4.10;;
4244;SDS011;2136;48.502;9.194;2023-05-07T04:36:01;4.27;;;3.87;;
4244;SDS011;2136;48.502;9.194;2023-05-07T04:38:28;7.57;;;4.20;;
4244;SDS011;2136;48.502;9.194;2023-05-07T04:40:55;5.97;;;4.00;;
4244;SDS011;2136;48.502;9.194;2023-05-07T04:43:22;5.33;;;4.90;;
4244;SDS011;2136;48.502;9.194;2023-05-07T04:45:50;7.00;;;4.70;;
4244;SDS011;2136;48.502;9.194;2023-05-07T04:48:17;6.70;;;5.17;;
4244;SDS011;2136;48.502;9.194;2023-05-07T04:50:48;5.03;;;4.50;;
4244;SDS011;2136;48.502;9.194;2023-05-07T04:53:15;6.77;;;4.00;;
4244;SDS011;2136;48.502;9.194;2023-05-07T04:55:42;9.73;;;6.03;;
4244;SDS011;2136;48.502;9.194;2023-05-07T04:58:10;4.30;;;3.90;;
4244;SDS011;2136;48.502;9.194;2023-05-07T05:00:37;6.37;;;4.37;;
4244;SDS011;2136;48.502;9.194;2023-05-07T05:03:04;6.00;;;4.43;;
4244;SDS011;2136;48.502;9.194;2023-05-07T05:05:32;4.20;;;3.90;;
4244;SDS011;2136;48.502;9.194;2023-05-07T05:08:00;10.83;;;4.33;;
4244;SDS011;2136;48.502;9.194;2023-05-07T05:10:27;5.13;;;4.63;;
4244;SDS011;2136;48.502;9.194;2023-05-07T05:12:54;5.10;;;4.60;;
4244;SDS011;2136;48.502;9.194;2023-05-07T05:15:20;7.70;;;5.03;;
4244;SDS011;2136;48.502;9.194;2023-05-07T05:17:47;6.30;;;4.07;;
4244;SDS011;2136;48.502;9.194;2023-05-07T05:20:14;6.10;;;4.80;;
4244;SDS011;2136;48.502;9.194;2023-05-07T05:22:41;11.13;;;4.23;;
4244;SDS011;2136;48.502;9.194;2023-05-07T05:25:09;7.53;;;4.40;;
4244;SDS011;2136;48.502;9.194;2023-05-07T05:27:36;5.90;;;4.63;;
4244;SDS011;2136;48.502;9.194;2023-05-07T05:30:03;5.43;;;4.43;;
4244;SDS011;2136;48.502;9.194;2023-05-07T05:32:31;4.70;;;4.30;;
4244;SDS011;2136;48.502;9.194;2023-05-07T05:34:58;5.43;;;5.03;;
4244;SDS011;2136;48.502;9.194;2023-05-07T05:37:25;5.50;;;4.50;;
4244;SDS011;2136;48.502;9.194;2023-05-07T05:39:52;10.53;;;4.77;;
4244;SDS011;2136;48.502;9.194;2023-05-07T05:42:21;7.33;;;4.40;;
4244;SDS011;2136;48.502;9.194;2023-05-07T05:44:48;5.07;;;4.60;;
4244;SDS011;2136;48.502;9.194;2023-05-07T05:47:14;4.83;;;4.43;;
4244;SDS011;2136;48.502;9.194;2023-05-07T05:49:41;4.93;;;4.60;;
4244;SDS011;2136;48.502;9.194;2023-05-07T05:52:09;5.55;;;4.20;;
4244;SDS011;2136;48.502;9.194;2023-05-07T05:54:38;4.33;;;4.03;;
4244;SDS011;2136;48.502;9.194;2023-05-07T05:57:05;5.43;;;5.00;;
4244;SDS011;2136;48.502;9.194;2023-05-07T05:59:33;4.97;;;4.53;;
4244;SDS011;2136;48.502;9.194;2023-05-07T06:02:00;5.47;;;3.73;;
4244;SDS011;2136;48.502;9.194;2023-05-07T06:04:27;6.90;;;4.63;;
4244;SDS011;2136;48.502;9.194;2023-05-07T06:06:53;5.27;;;4.07;;
4244;SDS011;2136;48.502;9.194;2023-05-07T06:09:21;4.27;;;3.97;;
4244;SDS011;2136;48.502;9.194;2023-05-07T06:11:48;6.97;;;4.30;;
4244;SDS011;2136;48.502;9.194;2023-05-07T06:14:15;4.43;;;4.13;;
4244;SDS011;2136;48.502;9.194;2023-05-07T06:16:43;4.40;;;4.00;;
4244;SDS011;2136;48.502;9.194;2023-05-07T06:19:10;11.00;;;4.70;;
4244;SDS011;2136;48.502;9.194;2023-05-07T06:21:37;5.50;;;4.00;;
4244;SDS011;2136;48.502;9.194;2023-05-07T06:24:05;4.20;;;3.87;;
4244;SDS011;2136;48.502;9.194;2023-05-07T06:26:32;4.60;;;4.10;;
4244;SDS011;2136;48.502;9.194;2023-05-07T06:28:59;4.90;;;4.40;;
4244;SDS011;2136;48.502;9.194;2023-05-07T06:31:28;9.07;;;4.83;;
4244;SDS011;2136;48.502;9.194;2023-05-07T06:33:57;6.10;;;4.43;;
4244;SDS011;2136;48.502;9.194;2023-05-07T06:36:25;4.83;;;4.43;;
4244;SDS011;2136;48.502;9.194;2023-05-07T06:38:52;7.13;;;4.50;;
4244;SDS011;2136;48.502;9.194;2023-05-07T06:41:19;4.40;;;4.00;;
4244;SDS011;2136;48.502;9.194;2023-05-07T06:43:46;4.77;;;4.37;;
4244;SDS011;2136;48.502;9.194;2023-05-07T06:46:13;7.90;;;4.10;;
4244;SDS011;2136;48.502;9.194;2023-05-07T06:48:40;6.10;;;4.80;;
4244;SDS011;2136;48.502;9.194;2023-05-07T06:51:08;4.10;;;3.70;;
4244;SDS011;2136;48.502;9.194;2023-05-07T06:53:35;4.97;;;4.23;;
4244;SDS011;2136;48.502;9.194;2023-05-07T06:56:02;5.63;;;4.07;;
4244;SDS011;2136;48.502;9.194;2023-05-07T06:58:29;5.40;;;4.63;;
4244;SDS011;2136;48.502;9.194;2023-05-07T07:00:56;4.67;;;3.63;;
4244;SDS011;2136;48.502;9.194;2023-05-07T07:03:23;5.63;;;4.17;;
4244;SDS011;2136;48.502;9.194;2023-05-07T07:05:51;5.20;;;4.30;;
4244;SDS011;2136;48.502;9.194;2023-05-07T07:08:19;4.77;;;4.27;;
4244;SDS011;2136;48.502;9.194;2023-05-07T07:10:47;4.30;;;3.90;;
4244;SDS011;2136;48.502;9.194;2023-05-07T07:13:14;11.03;;;4.87;;
4244;SDS011;2136;48.502;9.194;2023-05-07T07:15:41;6.93;;;3.73;;
4244;SDS011;2136;48.502;9.194;2023-05-07T07:18:08;4.20;;;3.80;;
4244;SDS011;2136;48.502;9.194;2023-05-07T07:20:35;5.60;;;4.53;;
4244;SDS011;2136;48.502;9.194;2023-05-07T07:23:02;7.90;;;3.60;;
4244;SDS011;2136;48.502;9.194;2023-05-07T07:25:30;6.70;;;3.73;;
4244;SDS011;2136;48.502;9.194;2023-05-07T07:27:57;5.50;;;3.70;;
4244;SDS011;2136;48.502;9.194;2023-05-07T07:30:24;5.93;;;3.60;;
4244;SDS011;2136;48.502;9.194;2023-05-07T07:32:51;4.83;;;4.27;;
4244;SDS011;2136;48.502;9.194;2023-05-07T07:35:18;4.00;;;3.63;;
4244;SDS011;2136;48.502;9.194;2023-05-07T07:37:44;5.37;;;3.23;;
4244;SDS011;2136;48.502;9.194;2023-05-07T07:40:11;3.80;;;3.50;;
4244;SDS011;2136;48.502;9.194;2023-05-07T07:42:40;5.60;;;3.70;;
4244;SDS011;2136;48.502;9.194;2023-05-07T07:45:07;4.80;;;3.47;;
4244;SDS011;2136;48.502;9.194;2023-05-07T07:47:35;7.33;;;3.63;;
4244;SDS011;2136;48.502;9.194;2023-05-07T07:50:01;4.30;;;3.90;;
4244;SDS011;2136;48.502;9.194;2023-05-07T07:52:29;4.63;;;3.77;;
4244;SDS011;2136;48.502;9.194;2023-05-07T07:54:55;4.37;;;3.10;;
4244;SDS011;2136;48.502;9.194;2023-05-07T07:57:22;3.90;;;3.27;;
4244;SDS011;2136;48.502;9.194;2023-05-07T07:59:50;3.67;;;3.10;;
4244;SDS011;2136;48.502;9.194;2023-05-07T08:02:17;2.80;;;2.60;;
4244;SDS011;2136;48.502;9.194;2023-05-07T08:04:44;9.13;;;3.47;;
4244;SDS011;2136;48.502;9.194;2023-05-07T08:07:12;10.47;;;3.30;;
4244;SDS011;2136;48.502;9.194;2023-05-07T08:09:39;3.90;;;3.60;;
4244;SDS011;2136;48.502;9.194;2023-05-07T08:12:06;8.33;;;4.13;;
4244;SDS011;2136;48.502;9.194;2023-05-07T08:14:33;3.90;;;3.60;;
4244;SDS011;2136;48.502;9.194;2023-05-07T08:17:02;3.30;;;3.10;;
4244;SDS011;2136;48.502;9.194;2023-05-07T08:19:29;5.20;;;3.77;;
4244;SDS011;2136;48.502;9.194;2023-05-07T08:21:56;3.70;;;3.40;;
4244;SDS011;2136;48.502;9.194;2023-05-07T08:24:23;2.97;;;2.77;;
4244;SDS011;2136;48.502;9.194;2023-05-07T08:26:50;4.40;;;3.23;;
4244;SDS011;2136;48.502;9.194;2023-05-07T08:29:17;3.90;;;3.50;;
4244;SDS011;2136;48.502;9.194;2023-05-07T08:31:44;4.10;;;3.57;;
4244;SDS011;2136;48.502;9.194;2023-05-07T08:34:12;8.93;;;3.57;;
4244;SDS011;2136;48.502;9.194;2023-05-07T08:36:39;9.30;;;3.50;;
4244;SDS011;2136;48.502;9.194;2023-05-07T08:39:07;4.80;;;3.50;;
4244;SDS011;2136;48.502;9.194;2023-05-07T08:41:36;7.07;;;4.23;;
4244;SDS011;2136;48.502;9.194;2023-05-07T08:44:03;3.60;;;3.30;;
4244;SDS011;2136;48.502;9.194;2023-05-07T08:46:32;4.17;;;3.60;;
4244;SDS011;2136;48.502;9.194;2023-05-07T08:49:00;3.40;;;3.17;;
4244;SDS011;2136;48.502;9.194;2023-05-07T08:51:28;6.27;;;3.97;;
4244;SDS011;2136;48.502;9.194;2023-05-07T08:53:56;4.27;;;3.87;;
4244;SDS011;2136;48.502;9.194;2023-05-07T08:56:24;5.20;;;3.83;;
4244;SDS011;2136;48.502;9.194;2023-05-07T08:58:51;4.30;;;4.00;;
4244;SDS011;2136;48.502;9.194;2023-05-07T09:01:21;4.10;;;3.80;;
4244;SDS011;2136;48.502;9.194;2023-05-07T09:03:49;4.70;;;4.27;;
4244;SDS011;2136;48.502;9.194;2023-05-07T09:06:17;3.30;;;3.00;;
4244;SDS011;2136;48.502;9.194;2023-05-07T09:08:49;3.80;;;3.33;;
4244;SDS011;2136;48.502;9.194;2023-05-07T09:11:19;4.80;;;3.30;;
4244;SDS011;2136;48.502;9.194;2023-05-07T09:13:47;3.00;;;2.80;;
4244;SDS011;2136;48.502;9.194;2023-05-07T09:16:15;3.33;;;3.03;;
4244;SDS011;2136;48.502;9.194;2023-05-07T09:18:42;4.40;;;3.30;;
4244;SDS011;2136;48.502;9.194;2023-05-07T09:21:10;3.13;;;2.73;;
4244;SDS011;2136;48.502;9.194;2023-05-07T09:23:37;4.03;;;3.67;;
4244;SDS011;2136;48.502;9.194;2023-05-07T09:26:06;4.03;;;3.60;;
4244;SDS011;2136;48.502;9.194;2023-05-07T09:28:37;3.97;;;3.57;;
4244;SDS011;2136;48.502;9.194;2023-05-07T09:31:05;3.27;;;2.97;;
4244;SDS011;2136;48.502;9.194;2023-05-07T09:33:32;6.13;;;2.90;;
4244;SDS011;2136;48.502;9.194;2023-05-07T09:36:01;3.50;;;3.30;;
4244;SDS011;2136;48.502;9.194;2023-05-07T09:38:30;4.60;;;2.87;;
4244;SDS011;2136;48.502;9.194;2023-05-07T09:41:01;4.30;;;2.30;;
4244;SDS011;2136;48.502;9.194;2023-05-07T09:43:32;2.77;;;2.57;;
4244;SDS011;2136;48.502;9.194;2023-05-07T09:46:02;6.30;;;2.20;;
4244;SDS011;2136;48.502;9.194;2023-05-07T09:48:30;3.57;;;2.27;;
4244;SDS011;2136;48.502;9.194;2023-05-07T09:51:01;3.37;;;2.43;;
4244;SDS011;2136;48.502;9.194;2023-05-07T09:53:29;7.33;;;2.20;;
4244;SDS011;2136;48.502;9.194;2023-05-07T09:55:57;2.43;;;2.23;;
4244;SDS011;2136;48.502;9.194;2023-05-07T09:58:25;4.10;;;2.10;;
4244;SDS011;2136;48.502;9.194;2023-05-07T10:00:54;2.00;;;1.80;;
4244;SDS011;2136;48.502;9.194;2023-05-07T10:03:22;4.53;;;1.60;;
4244;SDS011;2136;48.502;9.194;2023-05-07T10:05:53;3.27;;;2.00;;
4244;SDS011;2136;48.502;9.194;2023-05-07T10:08:21;2.80;;;2.07;;
4244;SDS011;2136;48.502;9.194;2023-05-07T10:10:48;2.67;;;2.07;;
4244;SDS011;2136;48.502;9.194;2023-05-07T10:13:16;1.60;;;1.47;;
4244;SDS011;2136;48.502;9.194;2023-05-07T10:15:44;2.30;;;2.10;;
4244;SDS011;2136;48.502;9.194;2023-05-07T10:18:12;1.67;;;1.57;;
4244;SDS011;2136;48.502;9.194;2023-05-07T10:20:40;1.80;;;1.70;;
4244;SDS011;2136;48.502;9.194;2023-05-07T10:23:13;2.53;;;2.00;;
4244;SDS011;2136;48.502;9.194;2023-05-07T10:25:44;2.23;;;1.70;;
4244;SDS011;2136;48.502;9.194;2023-05-07T10:28:11;1.60;;;1.50;;
4244;SDS011;2136;48.502;9.194;2023-05-07T10:30:46;1.67;;;1.47;;
4244;SDS011;2136;48.502;9.194;2023-05-07T10:33:23;1.60;;;1.50;;
4244;SDS011;2136;48.502;9.194;2023-05-07T10:35:52;1.77;;;1.63;;
4244;SDS011;2136;48.502;9.194;2023-05-07T10:38:23;1.70;;;1.60;;
4244;SDS011;2136;48.502;9.194;2023-05-07T10:40:51;1.83;;;1.73;;
4244;SDS011;2136;48.502;9.194;2023-05-07T10:43:18;2.00;;;1.90;;
4244;SDS011;2136;48.502;9.194;2023-05-07T10:45:49;3.73;;;2.00;;
4244;SDS011;2136;48.502;9.194;2023-05-07T10:48:39;1.80;;;1.70;;
4244;SDS011;2136;48.502;9.194;2023-05-07T10:51:36;2.10;;;1.90;;
4244;SDS011;2136;48.502;9.194;2023-05-07T10:54:19;2.33;;;2.00;;
4244;SDS011;2136;48.502;9.194;2023-05-07T10:56:47;1.70;;;1.60;;
4244;SDS011;2136;48.502;9.194;2023-05-07T10:59:31;3.30;;;2.27;;
4244;SDS011;2136;48.502;9.194;2023-05-07T11:02:06;1.80;;;1.70;;
4244;SDS011;2136;48.502;9.194;2023-05-07T11:04:37;2.23;;;2.03;;
4244;SDS011;2136;48.502;9.194;2023-05-07T11:07:16;2.60;;;1.67;;
4244;SDS011;2136;48.502;9.194;2023-05-07T11:09:54;1.97;;;1.70;;
4244;SDS011;2136;48.502;9.194;2023-05-07T11:15:15;2.63;;;1.90;;
4244;SDS011;2136;48.502;9.194;2023-05-07T11:17:59;2.10;;;2.00;;
4244;SDS011;2136;48.502;9.194;2023-05-07T11:26:43;4.70;;;2.70;;
4244;SDS011;2136;48.502;9.194;2023-05-07T11:29:11;3.63;;;2.40;;
4244;SDS011;2136;48.502;9.194;2023-05-07T11:31:39;2.70;;;1.97;;
4244;SDS011;2136;48.502;9.194;2023-05-07T11:34:06;2.87;;;2.00;;
4244;SDS011;2136;48.502;9.194;2023-05-07T11:36:35;2.87;;;1.90;;
4244;SDS011;2136;48.502;9.194;2023-05-07T11:39:20;3.07;;;2.10;;
4244;SDS011;2136;48.502;9.194;2023-05-07T11:41:51;5.90;;;2.47;;
4244;SDS011;2136;48.502;9.194;2023-05-07T11:44:18;3.93;;;2.50;;
4244;SDS011;2136;48.502;9.194;2023-05-07T11:46:45;2.00;;;1.90;;
4244;SDS011;2136;48.502;9.194;2023-05-07T11:49:12;2.33;;;1.97;;
4244;SDS011;2136;48.502;9.194;2023-05-07T11:51:39;3.63;;;1.90;;
4244;SDS011;2136;48.502;9.194;2023-05-07T11:54:07;2.60;;;2.40;;
4244;SDS011;2136;48.502;9.194;2023-05-07T11:56:36;3.33;;;2.47;;
4244;SDS011;2136;48.502;9.194;2023-05-07T11:59:05;2.53;;;2.20;;
4244;SDS011;2136;48.502;9.194;2023-05-07T12:01:32;5.33;;;2.73;;
4244;SDS011;2136;48.502;9.194;2023-05-07T12:04:02;2.60;;;2.40;;
4244;SDS011;2136;48.502;9.194;2023-05-07T12:06:30;3.70;;;2.43;;
4244;SDS011;2136;48.502;9.194;2023-05-07T12:08:57;2.90;;;1.97;;
4244;SDS011;2136;48.502;9.194;2023-05-07T12:11:24;3.43;;;2.53;;
4244;SDS011;2136;48.502;9.194;2023-05-07T12:13:51;3.97;;;2.23;;
4244;SDS011;2136;48.502;9.194;2023-05-07T12:16:21;3.00;;;2.63;;
4244;SDS011;2136;48.502;9.194;2023-05-07T12:18:50;2.70;;;2.50;;
4244;SDS011;2136;48.502;9.194;2023-05-07T12:21:20;2.13;;;2.00;;
4244;SDS011;2136;48.502;9.194;2023-05-07T12:23:47;3.13;;;2.27;;
4244;SDS011;2136;48.502;9.194;2023-05-07T12:26:14;4.90;;;2.53;;
4244;SDS011;2136;48.502;9.194;2023-05-07T12:28:40;2.57;;;2.37;;
4244;SDS011;2136;48.502;9.194;2023-05-07T12:31:07;2.13;;;2.03;;
4244;SDS011;2136;48.502;9.194;2023-05-07T12:33:36;5.03;;;1.90;;
4244;SDS011;2136;48.502;9.194;2023-05-07T12:36:05;1.80;;;1.70;;
4244;SDS011;2136;48.502;9.194;2023-05-07T12:38:34;2.87;;;2.23;;
4244;SDS011;2136;48.502;9.194;2023-05-07T12:41:02;2.00;;;1.80;;
4244;SDS011;2136;48.502;9.194;2023-05-07T12:43:29;2.93;;;2.50;;
4244;SDS011;2136;48.502;9.194;2023-05-07T12:45:57;2.93;;;2.33;;
4244;SDS011;2136;48.502;9.194;2023-05-07T12:48:27;5.20;;;2.80;;
4244;SDS011;2136;48.502;9.194;2023-05-07T12:50:55;2.60;;;2.40;;
4244;SDS011;2136;48.502;9.194;2023-05-07T12:53:23;2.20;;;2.10;;
4244;SDS011;2136;48.502;9.194;2023-05-07T12:55:52;2.53;;;2.33;;
4244;SDS011;2136;48.502;9.194;2023-05-07T12:58:21;3.97;;;2.00;;
4244;SDS011;2136;48.502;9.194;2023-05-07T13:00:51;5.33;;;2.33;;
4244;SDS011;2136;48.502;9.194;2023-05-07T13:03:23;3.57;;;1.93;;
4244;SDS011;2136;48.502;9.194;2023-05-07T13:05:50;2.17;;;2.07;;
4244;SDS011;2136;48.502;9.194;2023-05-07T13:08:27;2.10;;;2.00;;
4244;SDS011;2136;48.502;9.194;2023-05-07T13:10:55;2.50;;;1.97;;
4244;SDS011;2136;48.502;9.194;2023-05-07T13:13:22;2.60;;;2.40;;
4244;SDS011;2136;48.502;9.194;2023-05-07T13:15:50;1.93;;;1.77;;
4244;SDS011;2136;48.502;9.194;2023-05-07T13:18:16;4.93;;;1.90;;
4244;SDS011;2136;48.502;9.194;2023-05-07T13:20:44;3.10;;;2.27;;
4244;SDS011;2136;48.502;9.194;2023-05-07T13:23:10;3.67;;;3.10;;
4244;SDS011;2136;48.502;9.194;2023-05-07T13:25:39;3.40;;;3.10;;
4244;SDS011;2136;48.502;9.194;2023-05-07T13:28:06;2.93;;;2.73;;
4244;SDS011;2136;48.502;9.194;2023-05-07T13:30:32;3.83;;;2.80;;
4244;SDS011;2136;48.502;9.194;2023-05-07T13:32:59;4.43;;;3.03;;
4244;SDS011;2136;48.502;9.194;2023-05-07T13:35:26;6.27;;;3.90;;
4244;SDS011;2136;48.502;9.194;2023-05-07T13:37:53;16.13;;;4.60;;
4244;SDS011;2136;48.502;9.194;2023-05-07T13:40:20;5.83;;;3.63;;
4244;SDS011;2136;48.502;9.194;2023-05-07T13:42:49;4.37;;;3.30;;
4244;SDS011;2136;48.502;9.194;2023-05-07T13:45:17;6.57;;;3.57;;
4244;SDS011;2136;48.502;9.194;2023-05-07T13:47:44;5.23;;;3.37;;
4244;SDS011;2136;48.502;9.194;2023-05-07T13:50:11;9.83;;;4.70;;
4244;SDS011;2136;48.502;9.194;2023-05-07T13:52:40;5.00;;;4.00;;
4244;SDS011;2136;48.502;9.194;2023-05-07T13:55:08;5.00;;;3.90;;
4244;SDS011;2136;48.502;9.194;2023-05-07T13:57:36;8.60;;;4.40;;
4244;SDS011;2136;48.502;9.194;2023-05-07T14:00:05;4.97;;;3.57;;
4244;SDS011;2136;48.502;9.194;2023-05-07T14:02:33;5.43;;;4.40;;
4244;SDS011;2136;48.502;9.194;2023-05-07T14:05:00;6.00;;;3.70;;
4244;SDS011;2136;48.502;9.194;2023-05-07T14:07:28;8.00;;;3.67;;
4244;SDS011;2136;48.502;9.194;2023-05-07T14:09:54;7.97;;;2.83;;
4244;SDS011;2136;48.502;9.194;2023-05-07T14:12:22;6.50;;;3.30;;
4244;SDS011;2136;48.502;9.194;2023-05-07T14:14:50;4.60;;;3.63;;
4244;SDS011;2136;48.502;9.194;2023-05-07T14:17:18;9.10;;;3.97;;
4244;SDS011;2136;48.502;9.194;2023-05-07T14:19:45;5.87;;;3.67;;
4244;SDS011;2136;48.502;9.194;2023-05-07T14:22:13;4.10;;;3.80;;
4244;SDS011;2136;48.502;9.194;2023-05-07T14:24:39;3.43;;;3.10;;
4244;SDS011;2136;48.502;9.194;2023-05-07T14:27:07;4.70;;;3.30;;
4244;SDS011;2136;48.502;9.194;2023-05-07T14:29:34;6.73;;;3.80;;
4244;SDS011;2136;48.502;9.194;2023-05-07T14:32:01;4.20;;;3.10;;
4244;SDS011;2136;48.502;9.194;2023-05-07T14:34:29;6.30;;;4.33;;
4244;SDS011;2136;48.502;9.194;2023-05-07T14:36:57;6.47;;;4.00;;
4244;SDS011;2136;48.502;9.194;2023-05-07T14:39:24;5.97;;;4.43;;
4244;SDS011;2136;48.502;9.194;2023-05-07T14:41:51;9.50;;;4.03;;
4244;SDS011;2136;48.502;9.194;2023-05-07T14:44:19;4.83;;;4.33;;
4244;SDS011;2136;48.502;9.194;2023-05-07T14:46:46;9.03;;;7.00;;
4244;SDS011;2136;48.502;9.194;2023-05-07T14:49:14;7.83;;;5.77;;
4244;SDS011;2136;48.502;9.194;2023-05-07T14:51:44;9.87;;;5.27;;
4244;SDS011;2136;48.502;9.194;2023-05-07T14:54:11;5.90;;;5.03;;
4244;SDS011;2136;48.502;9.194;2023-05-07T14:56:38;6.10;;;3.70;;
4244;SDS011;2136;48.502;9.194;2023-05-07T14:59:05;5.30;;;3.67;;
4244;SDS011;2136;48.502;9.194;2023-05-07T15:01:33;7.40;;;2.60;;
4244;SDS011;2136;48.502;9.194;2023-05-07T15:04:00;3.60;;;3.30;;
4244;SDS011;2136;48.502;9.194;2023-05-07T15:06:29;3.50;;;3.20;;
4244;SDS011;2136;48.502;9.194;2023-05-07T15:08:57;5.20;;;2.60;;
4244;SDS011;2136;48.502;9.194;2023-05-07T15:11:24;7.50;;;3.27;;
4244;SDS011;2136;48.502;9.194;2023-05-07T15:13:51;3.67;;;2.73;;
4244;SDS011;2136;48.502;9.194;2023-05-07T15:16:18;2.97;;;2.77;;
4244;SDS011;2136;48.502;9.194;2023-05-07T15:18:45;2.60;;;2.40;;
4244;SDS011;2136;48.502;9.194;2023-05-07T15:21:12;4.50;;;3.20;;
4244;SDS011;2136;48.502;9.194;2023-05-07T15:23:39;3.77;;;2.70;;
4244;SDS011;2136;48.502;9.194;2023-05-07T15:26:08;4.87;;;2.90;;
4244;SDS011;2136;48.502;9.194;2023-05-07T15:28:35;3.37;;;2.40;;
4244;SDS011;2136;48.502;9.194;2023-05-07T15:31:03;2.27;;;2.17;;